Time;durP1;ratioP1;P1;durP2;ratioP2;P2;SDS_P1;SDS_P2;PMS_P1;PMS_P2;Temp;Humidity;BMP_temperature;BMP_pressure;BME280_temperature;BME280_humidity;BME280_pressure;Samples;Min_cycle;Max_cycle;Signal;HPM_P1;HPM_P2
2022/04/01 00:01:05;;;;;;;4.00;1.98;;;18.60;51.10;;;;;;6154774;23;20154;-86
2022/04/01 00:03:32;;;;;;;5.07;1.77;;;18.60;51.50;;;;;;6204107;23;20153;-85
2022/04/01 00:06:00;;;;;;;3.33;1.67;;;18.50;51.40;;;;;;6179990;23;20184;-84
2022/04/01 00:08:25;;;;;;;4.55;1.95;;;18.60;51.70;;;;;;6154366;23;20150;-86
2022/04/01 00:10:52;;;;;;;4.72;1.67;;;18.50;51.50;;;;;;6205587;23;20133;-84
2022/04/01 00:13:19;;;;;;;4.22;2.20;;;18.60;51.30;;;;;;6155100;23;20199;-83
2022/04/01 00:15:46;;;;;;;4.90;1.90;;;18.50;51.60;;;;;;6155149;23;20157;-84
2022/04/01 00:18:12;;;;;;;3.63;1.42;;;18.50;51.90;;;;;;6155097;23;20153;-83
2022/04/01 00:20:39;;;;;;;4.40;2.08;;;18.40;51.00;;;;;;6229848;23;20149;-84
2022/04/01 00:23:05;;;;;;;6.63;2.08;;;18.50;51.80;;;;;;6230468;23;20146;-86
2022/04/01 00:25:32;;;;;;;3.22;1.70;;;18.40;51.50;;;;;;6230205;23;20161;-83
2022/04/01 00:27:59;;;;;;;3.33;1.80;;;18.50;51.60;;;;;;6179409;23;20149;-86
2022/04/01 00:30:26;;;;;;;3.10;1.70;;;18.40;51.60;;;;;;6153960;23;20228;-84
2022/04/01 00:32:56;;;;;;;3.78;1.80;;;18.50;51.20;;;;;;6178629;23;20153;-83
2022/04/01 00:35:22;;;;;;;3.35;1.70;;;18.40;51.60;;;;;;6153895;23;20153;-84
2022/04/01 00:37:49;;;;;;;4.25;2.15;;;18.50;51.30;;;;;;6177568;23;20248;-84
2022/04/01 00:40:21;;;;;;;3.15;1.77;;;18.50;51.60;;;;;;6229152;23;20146;-86
2022/04/01 00:42:48;;;;;;;2.20;1.88;;;18.50;51.80;;;;;;6153121;23;20153;-83
2022/04/01 00:45:16;;;;;;;2.75;1.98;;;18.40;51.40;;;;;;6255582;23;20576;-85
2022/04/01 00:47:46;;;;;;;4.95;2.03;;;18.40;51.70;;;;;;6229265;23;20220;-86
2022/04/01 00:50:14;;;;;;;3.45;1.55;;;18.40;51.50;;;;;;6154556;23;20157;-85
2022/04/01 00:52:46;;;;;;;2.92;1.58;;;18.40;51.70;;;;;;6153637;23;20149;-84
2022/04/01 00:55:18;;;;;;;5.10;1.92;;;18.50;51.60;;;;;;6154131;23;20156;-83
2022/04/01 00:57:49;;;;;;;4.07;1.92;;;18.50;52.10;;;;;;6178470;23;20288;-84
2022/04/01 01:00:17;;;;;;;3.08;1.60;;;18.40;51.70;;;;;;6179439;23;20153;-85
2022/04/01 01:02:44;;;;;;;3.92;1.85;;;18.40;51.60;;;;;;6179022;23;20176;-84
2022/04/01 01:05:11;;;;;;;3.35;2.08;;;18.30;52.10;;;;;;6178281;23;20585;-83
2022/04/01 01:07:42;;;;;;;3.25;1.48;;;18.40;51.70;;;;;;6178316;23;20149;-84
2022/04/01 01:10:15;;;;;;;3.83;1.70;;;18.30;51.80;;;;;;6155199;23;20247;-83
2022/04/01 01:12:41;;;;;;;3.60;1.65;;;18.30;52.30;;;;;;6129621;23;20149;-83
2022/04/01 01:15:13;;;;;;;3.38;1.77;;;18.40;52.00;;;;;;6228994;23;20161;-83
2022/04/01 01:17:45;;;;;;;3.55;1.60;;;18.40;51.40;;;;;;6179284;23;20154;-84
2022/04/01 01:20:17;;;;;;;2.60;1.70;;;18.30;51.60;;;;;;6153148;23;20650;-84
2022/04/01 01:22:44;;;;;;;3.40;1.70;;;18.30;52.10;;;;;;6154738;23;20180;-84
2022/04/01 01:25:12;;;;;;;3.58;1.85;;;18.30;52.20;;;;;;6228413;23;20628;-83
2022/04/01 01:27:38;;;;;;;2.78;1.88;;;18.20;52.20;;;;;;6227683;23;20160;-87
2022/04/01 01:30:05;;;;;;;6.10;1.90;;;18.30;52.20;;;;;;6202582;23;20189;-88
2022/04/01 01:32:35;;;;;;;4.07;1.80;;;18.30;51.10;;;;;;6204118;23;20157;-83
2022/04/01 01:35:06;;;;;;;2.53;1.52;;;18.30;52.20;;;;;;6129253;23;20177;-85
2022/04/01 01:37:32;;;;;;;3.58;1.60;;;18.30;52.20;;;;;;6178233;23;20158;-83
2022/04/01 01:39:59;;;;;;;3.85;1.80;;;18.30;52.30;;;;;;6228317;23;20624;-84
2022/04/01 01:42:24;;;;;;;2.17;1.50;;;18.20;51.50;;;;;;6227827;23;20581;-84
2022/04/01 01:44:50;;;;;;;4.18;1.88;;;18.30;51.10;;;;;;6228324;23;20136;-83
2022/04/01 01:47:17;;;;;;;4.40;1.98;;;18.30;51.20;;;;;;6177483;23;20173;-83
2022/04/01 01:54:42;;;;;;;2.25;1.73;;;18.30;51.40;;;;;;6178157;23;20148;-86
2022/04/01 01:55:10;;;;;;;1.88;1.55;;;18.40;51.30;;;;;;6209690;23;20141;-84
2022/04/01 01:57:39;;;;;;;2.45;1.65;;;18.40;51.60;;;;;;6204793;23;20133;-83
2022/04/01 02:00:11;;;;;;;4.07;1.70;;;18.30;51.50;;;;;;6229449;23;20557;-82
2022/04/01 02:02:42;;;;;;;4.53;1.95;;;18.40;51.80;;;;;;6180030;23;20153;-84
2022/04/01 02:05:11;;;;;;;2.78;2.03;;;18.30;51.90;;;;;;6153197;23;20149;-82
2022/04/01 02:07:37;;;;;;;2.72;1.80;;;18.30;51.60;;;;;;6154093;23;20153;-84
2022/04/01 02:10:05;;;;;;;3.72;1.80;;;18.30;51.40;;;;;;6204770;23;20146;-86
2022/04/01 02:12:32;;;;;;;2.20;1.80;;;18.30;50.90;;;;;;6154354;23;20156;-83
2022/04/01 02:14:59;;;;;;;2.40;1.90;;;18.30;51.90;;;;;;6203551;23;20549;-82
2022/04/01 02:17:25;;;;;;;2.53;1.65;;;18.30;51.60;;;;;;6255812;23;20153;-85
2022/04/01 02:19:51;;;;;;;2.67;1.73;;;18.30;51.70;;;;;;6230580;23;20142;-83
2022/04/01 02:22:20;;;;;;;2.72;1.75;;;18.30;50.70;;;;;;6229901;23;20141;-83
2022/04/01 02:24:50;;;;;;;2.97;1.90;;;18.30;51.40;;;;;;6178813;23;20153;-85
2022/04/01 02:27:17;;;;;;;2.92;1.70;;;18.30;51.40;;;;;;6179004;23;20243;-84
2022/04/01 02:29:43;;;;;;;2.60;1.73;;;18.30;51.00;;;;;;6203678;23;20193;-86
2022/04/01 02:32:13;;;;;;;2.35;1.70;;;18.30;51.70;;;;;;6228820;23;20145;-86
2022/04/01 02:34:43;;;;;;;3.95;1.90;;;18.30;51.10;;;;;;6153380;23;20180;-86
2022/04/01 02:37:10;;;;;;;2.63;2.10;;;18.40;51.10;;;;;;6129871;23;20156;-83
2022/04/01 02:39:39;;;;;;;4.72;2.00;;;18.40;52.40;;;;;;6203723;23;20145;-82
2022/04/01 02:42:09;;;;;;;2.78;1.65;;;18.30;51.70;;;;;;6178681;23;20459;-84
2022/04/01 02:44:35;;;;;;;2.85;1.70;;;18.20;51.50;;;;;;6154488;23;20156;-85
2022/04/01 02:47:07;;;;;;;3.25;1.55;;;18.30;50.70;;;;;;6229339;23;20496;-84
2022/04/01 02:49:36;;;;;;;5.07;2.00;;;18.30;51.30;;;;;;6153690;23;20172;-85
2022/04/01 02:52:05;;;;;;;4.47;1.83;;;18.30;52.00;;;;;;6154910;23;20485;-85
2022/04/01 02:54:34;;;;;;;3.20;1.98;;;18.20;52.10;;;;;;6182283;23;20149;-83
2022/04/01 02:57:02;;;;;;;4.88;1.80;;;18.20;51.10;;;;;;6158029;23;20218;-85
2022/04/01 02:59:30;;;;;;;4.15;1.60;;;18.30;51.30;;;;;;6182069;23;20152;-85
2022/04/01 03:01:57;;;;;;;2.13;1.55;;;18.30;51.00;;;;;;6156729;23;20149;-84
2022/04/01 03:04:24;;;;;;;3.05;1.80;;;18.20;51.40;;;;;;6156867;23;20152;-85
2022/04/01 03:06:54;;;;;;;3.60;1.83;;;18.30;51.60;;;;;;6181494;23;20710;-83
2022/04/01 03:09:21;;;;;;;3.47;1.90;;;18.20;51.70;;;;;;6206022;23;20153;-83
2022/04/01 03:11:49;;;;;;;2.47;1.60;;;18.30;51.40;;;;;;6155805;23;20221;-84
2022/04/01 03:14:16;;;;;;;3.13;1.80;;;18.20;51.30;;;;;;6131618;23;20523;-82
2022/04/01 03:16:43;;;;;;;3.20;1.70;;;18.20;51.90;;;;;;6155839;23;20185;-85
2022/04/01 03:19:10;;;;;;;2.20;1.70;;;18.20;51.20;;;;;;6155327;23;20207;-83
2022/04/01 03:21:42;;;;;;;3.70;1.67;;;18.30;51.60;;;;;;6156265;23;20149;-85
2022/04/01 03:24:11;;;;;;;3.58;1.73;;;18.20;51.40;;;;;;6156130;23;20184;-82
2022/04/01 03:26:45;;;;;;;3.55;1.60;;;18.20;51.00;;;;;;6157355;23;20288;-84
2022/04/01 03:29:12;;;;;;;3.25;1.85;;;18.20;51.40;;;;;;6207222;23;20149;-83
2022/04/01 03:31:40;;;;;;;5.03;1.83;;;18.20;51.80;;;;;;6156884;23;20204;-84
2022/04/01 03:34:07;;;;;;;3.25;1.70;;;18.30;51.00;;;;;;6183710;23;20156;-83
2022/04/01 03:36:37;;;;;;;2.97;2.05;;;18.20;51.80;;;;;;6134627;23;20220;-84
2022/04/01 03:39:06;;;;;;;3.67;1.70;;;18.20;51.10;;;;;;6135972;23;20488;-82
2022/04/01 03:41:33;;;;;;;3.10;1.70;;;18.20;51.60;;;;;;6158033;23;20157;-83
2022/04/01 03:44:03;;;;;;;2.58;1.58;;;18.20;51.30;;;;;;6157566;23;20160;-86
2022/04/01 03:46:39;;;;;;;1.70;1.50;;;18.20;51.50;;;;;;6181087;23;20176;-83
2022/04/01 03:49:10;;;;;;;2.55;1.60;;;18.10;51.00;;;;;;6161358;23;20152;-82
2022/04/01 03:51:41;;;;;;;2.70;1.70;;;18.20;51.30;;;;;;6156437;23;20228;-85
2022/04/01 03:54:10;;;;;;;3.95;1.80;;;18.20;50.90;;;;;;6132204;23;20246;-83
2022/04/01 03:56:36;;;;;;;3.47;1.80;;;18.30;50.90;;;;;;6207419;23;20624;-83
2022/04/01 03:59:04;;;;;;;3.67;1.58;;;18.20;51.10;;;;;;6181331;23;20188;-84
2022/04/01 04:01:38;;;;;;;2.33;1.63;;;18.30;50.90;;;;;;6207664;23;20138;-85
2022/04/01 04:04:05;;;;;;;3.75;1.73;;;18.30;51.40;;;;;;6179188;23;20153;-82
2022/04/01 04:06:32;;;;;;;2.35;1.52;;;18.20;51.10;;;;;;6230539;23;20169;-84
2022/04/01 04:09:00;;;;;;;3.72;1.63;;;18.20;50.60;;;;;;6230192;23;20149;-84
2022/04/01 04:11:28;;;;;;;3.05;1.50;;;18.20;50.80;;;;;;6230633;23;20480;-83
2022/04/01 04:13:55;;;;;;;2.95;1.70;;;18.30;50.90;;;;;;6231205;23;20126;-83
2022/04/01 04:16:36;;;;;;;2.47;1.55;;;18.20;50.70;;;;;;6206304;23;20156;-83
2022/04/01 04:19:19;;;;;;;4.10;1.90;;;18.20;50.70;;;;;;6230809;23;20212;-85
2022/04/01 04:21:49;;;;;;;2.47;1.60;;;18.20;51.20;;;;;;6182402;23;20156;-85
2022/04/01 04:24:20;;;;;;;3.70;1.65;;;18.20;50.80;;;;;;6229347;23;20565;-83
2022/04/01 04:26:52;;;;;;;2.90;1.50;;;18.20;51.10;;;;;;6229014;23;20228;-85
2022/04/01 04:29:18;;;;;;;2.00;1.50;;;18.20;51.80;;;;;;6154083;23;20159;-84
2022/04/01 04:32:02;;;;;;;4.10;1.67;;;18.10;51.50;;;;;;6205877;23;20497;-84
2022/04/01 04:34:35;;;;;;;4.72;1.48;;;18.10;51.90;;;;;;6257018;23;20133;-84
2022/04/01 04:37:09;;;;;;;2.83;1.80;;;18.10;51.80;;;;;;6180976;23;20626;-84
2022/04/01 04:39:39;;;;;;;3.75;1.88;;;18.00;51.60;;;;;;6158311;23;20161;-85
2022/04/01 04:42:09;;;;;;;3.67;1.55;;;18.10;51.20;;;;;;6155727;23;20180;-84
2022/04/01 04:44:35;;;;;;;3.35;1.70;;;18.10;51.60;;;;;;6156434;23;20155;-83
2022/04/01 04:47:03;;;;;;;4.13;1.83;;;18.10;51.40;;;;;;6230791;23;20206;-84
2022/04/01 04:49:34;;;;;;;2.83;1.70;;;18.10;52.10;;;;;;6256325;23;20175;-83
2022/04/01 04:52:02;;;;;;;3.72;1.67;;;18.10;52.10;;;;;;6155813;23;20150;-83
2022/04/01 04:54:33;;;;;;;2.78;1.70;;;18.00;51.60;;;;;;6230704;23;20679;-85
2022/04/01 04:57:04;;;;;;;2.22;1.58;;;18.00;51.70;;;;;;6180563;23;20150;-84
2022/04/01 04:59:32;;;;;;;3.53;1.77;;;18.00;52.00;;;;;;6155671;23;20218;-85
2022/04/01 05:02:02;;;;;;;2.05;1.63;;;18.10;51.70;;;;;;6205325;23;20203;-83
2022/04/01 05:04:40;;;;;;;2.78;1.92;;;18.10;51.50;;;;;;6180805;23;20149;-82
2022/04/01 05:07:42;;;;;;;2.55;1.83;;;18.10;51.20;;;;;;6230133;23;20161;-83
2022/04/01 05:10:19;;;;;;;2.80;1.70;;;18.20;51.30;;;;;;6234413;23;20141;-83
2022/04/01 05:12:58;;;;;;;2.03;1.58;;;18.10;51.20;;;;;;6157039;23;20573;-83
2022/04/01 05:15:28;;;;;;;1.98;1.50;;;18.10;51.20;;;;;;6155999;23;20152;-83
2022/04/01 05:18:01;;;;;;;3.10;1.67;;;18.20;51.00;;;;;;6205816;23;20134;-83
2022/04/01 05:20:33;;;;;;;3.03;1.50;;;18.20;51.30;;;;;;6206693;23;20129;-84
2022/04/01 05:23:13;;;;;;;1.95;1.50;;;18.20;51.50;;;;;;6156366;23;20153;-83
2022/04/01 05:25:44;;;;;;;4.20;2.00;;;18.10;50.80;;;;;;6204746;23;20508;-84
2022/04/01 05:28:20;;;;;;;2.13;1.77;;;18.20;51.10;;;;;;6230064;23;20132;-82
2022/04/01 05:30:57;;;;;;;3.10;1.60;;;18.20;50.20;;;;;;6157433;23;20192;-85
2022/04/01 05:33:25;;;;;;;3.85;1.70;;;18.20;50.80;;;;;;6230835;23;20129;-86
2022/04/01 05:35:53;;;;;;;3.45;1.90;;;18.20;50.60;;;;;;6230608;23;20185;-83
2022/04/01 05:38:20;;;;;;;3.17;1.33;;;18.20;50.30;;;;;;6205815;23;20561;-83
2022/04/01 05:40:45;;;;;;;2.85;1.77;;;18.20;50.80;;;;;;6205930;23;20137;-85
2022/04/01 05:43:12;;;;;;;1.60;1.33;;;18.10;51.00;;;;;;6230680;23;20150;-85
2022/04/01 05:45:38;;;;;;;1.92;1.50;;;18.20;51.10;;;;;;6205301;23;20161;-83
2022/04/01 05:48:09;;;;;;;2.58;1.20;;;18.20;51.00;;;;;;6206275;23;20149;-84
2022/04/01 05:50:36;;;;;;;2.83;1.83;;;18.20;50.80;;;;;;6230852;23;20126;-85
2022/04/01 05:53:04;;;;;;;3.17;1.60;;;18.20;51.00;;;;;;6205221;23;20205;-84
2022/04/01 05:55:32;;;;;;;2.90;1.63;;;18.20;50.90;;;;;;6180904;23;20532;-83
2022/04/01 05:57:58;;;;;;;2.55;1.60;;;18.20;50.80;;;;;;6204795;23;20145;-82
2022/04/01 06:00:23;;;;;;;2.72;1.40;;;18.20;50.70;;;;;;6205781;23;20474;-83
2022/04/01 06:03:23;;;;;;;2.00;1.70;;;18.20;50.80;;;;;;6207269;23;20149;-84
2022/04/01 06:05:53;;;;;;;1.95;1.42;;;18.20;50.60;;;;;;6231175;23;20180;-85
2022/04/01 06:08:33;;;;;;;1.83;1.48;;;18.20;49.90;;;;;;6231480;23;20438;-85
2022/04/01 06:11:14;;;;;;;1.92;1.30;;;18.20;50.00;;;;;;6232543;23;20183;-83
2022/04/01 06:13:59;;;;;;;2.13;1.55;;;18.20;50.70;;;;;;6206638;23;20201;-85
2022/04/01 06:16:45;;;;;;;2.30;1.48;;;18.30;50.20;;;;;;6230838;23;20232;-83
2022/04/01 06:19:24;;;;;;;2.75;1.30;;;18.30;50.30;;;;;;6228527;23;20173;-82
2022/04/01 06:22:04;;;;;;;1.50;1.40;;;18.20;49.20;;;;;;6230282;23;20149;-84
2022/04/01 06:24:45;;;;;;;2.30;1.30;;;18.20;50.00;;;;;;6201646;23;20157;-84
2022/04/01 06:27:14;;;;;;;3.25;1.70;;;18.20;49.70;;;;;;6200099;23;20594;-83
2022/04/01 06:29:43;;;;;;;2.83;1.70;;;18.30;50.20;;;;;;6250128;23;20185;-84
2022/04/01 06:32:30;;;;;;;1.58;1.38;;;18.30;50.10;;;;;;6226399;23;20224;-82
2022/04/01 06:35:14;;;;;;;2.67;1.55;;;18.30;50.00;;;;;;6177559;23;20224;-83
2022/04/01 06:37:42;;;;;;;4.07;1.45;;;18.40;47.30;;;;;;6231560;23;20138;-82
2022/04/01 06:40:10;;;;;;;1.92;1.52;;;18.40;49.30;;;;;;6229878;23;20153;-82
2022/04/01 06:42:37;;;;;;;1.70;1.60;;;18.30;49.40;;;;;;6229712;23;20141;-84
2022/04/01 06:45:06;;;;;;;1.42;1.20;;;18.40;48.50;;;;;;6228663;23;20153;-84
2022/04/01 06:47:32;;;;;;;2.03;1.30;;;18.40;49.50;;;;;;6202745;23;20188;-85
2022/04/01 06:49:58;;;;;;;2.53;1.48;;;18.40;49.30;;;;;;6225362;23;20153;-84
2022/04/01 06:52:26;;;;;;;2.05;1.40;;;18.40;49.00;;;;;;6206649;23;20137;-82
2022/04/01 06:54:56;;;;;;;2.35;1.30;;;18.40;49.20;;;;;;6205601;23;20212;-82
2022/04/01 06:57:25;;;;;;;2.08;1.35;;;18.40;48.70;;;;;;6180161;23;20183;-83
2022/04/01 06:59:54;;;;;;;1.73;1.42;;;18.40;48.70;;;;;;6151625;23;20153;-83
2022/04/01 07:02:26;;;;;;;1.88;1.35;;;18.50;49.10;;;;;;6181341;23;20180;-82
2022/04/01 07:04:51;;;;;;;2.35;1.40;;;18.50;48.70;;;;;;6182727;23;20157;-81
2022/04/01 07:07:18;;;;;;;1.98;1.40;;;18.50;49.10;;;;;;6206721;23;20574;-82
2022/04/01 07:09:44;;;;;;;2.20;1.40;;;18.40;48.50;;;;;;6231338;23;20149;-81
2022/04/01 07:12:11;;;;;;;2.17;1.48;;;18.50;48.60;;;;;;6232902;23;20130;-82
2022/04/01 07:14:36;;;;;;;2.13;1.30;;;18.50;48.10;;;;;;6233818;23;20197;-81
2022/04/01 07:17:04;;;;;;;1.55;1.20;;;18.50;48.10;;;;;;6208792;23;20149;-81
2022/04/01 07:19:30;;;;;;;3.97;1.63;;;18.60;48.30;;;;;;6208514;23;20172;-81
2022/04/01 07:21:58;;;;;;;2.00;1.42;;;18.60;47.20;;;;;;6208756;23;20137;-81
2022/04/01 07:24:26;;;;;;;1.77;1.30;;;18.60;47.60;;;;;;6158442;23;20488;-81
2022/04/01 07:26:51;;;;;;;1.83;1.30;;;18.60;48.40;;;;;;6208794;23;20173;-81
2022/04/01 07:29:17;;;;;;;1.98;1.33;;;18.60;47.80;;;;;;6232952;23;20157;-81
2022/04/01 07:34:31;;;;;;;2.15;1.60;;;18.60;48.00;;;;;;6215479;23;20134;-82
2022/04/01 07:37:04;;;;;;;1.55;1.40;;;18.60;47.20;;;;;;6158546;23;20160;-82
2022/04/01 07:39:32;;;;;;;2.35;1.42;;;18.60;48.30;;;;;;6159631;23;20157;-81
2022/04/01 07:42:00;;;;;;;1.63;1.15;;;18.70;48.60;;;;;;6183676;23;20169;-82
2022/04/01 07:44:27;;;;;;;2.88;1.40;;;18.50;49.10;;;;;;6159938;23;20153;-83
2022/04/01 07:46:53;;;;;;;1.55;1.13;;;18.60;48.10;;;;;;6235637;23;20172;-81
2022/04/01 07:49:22;;;;;;;1.90;1.02;;;18.60;48.40;;;;;;6209641;23;20145;-82
2022/04/01 07:51:52;;;;;;;2.47;1.40;;;18.60;48.10;;;;;;6184195;23;20585;-82
2022/04/01 07:54:21;;;;;;;1.92;1.58;;;18.60;48.70;;;;;;6159466;23;20149;-82
2022/04/01 07:56:53;;;;;;;1.55;1.30;;;18.50;48.60;;;;;;6158417;23;20483;-83
2022/04/01 07:59:24;;;;;;;3.63;1.42;;;18.60;48.70;;;;;;6207863;23;20153;-83
2022/04/01 08:01:50;;;;;;;1.67;1.10;;;18.60;48.40;;;;;;6157192;23;20157;-81
2022/04/01 08:04:20;;;;;;;2.35;1.40;;;18.60;48.60;;;;;;6260618;23;20141;-81
2022/04/01 08:06:50;;;;;;;1.90;1.30;;;18.60;48.40;;;;;;6159074;23;20184;-82
2022/04/01 08:09:20;;;;;;;1.98;1.50;;;18.60;48.70;;;;;;6159491;23;20234;-81
2022/04/01 08:11:51;;;;;;;1.92;1.13;;;18.50;48.90;;;;;;6131731;23;20157;-82
2022/04/01 08:14:20;;;;;;;1.73;1.40;;;18.50;48.80;;;;;;6159386;23;20149;-82
2022/04/01 08:16:51;;;;;;;1.55;1.10;;;18.60;48.90;;;;;;6159821;23;20577;-81
2022/04/01 08:19:22;;;;;;;2.88;1.45;;;18.60;48.30;;;;;;6184088;23;20171;-82
2022/04/01 08:21:52;;;;;;;1.20;1.10;;;18.60;48.70;;;;;;6159441;23;20181;-86
2022/04/01 08:24:18;;;;;;;2.78;1.55;;;18.60;48.90;;;;;;6150117;23;20168;-86
2022/04/01 08:26:48;;;;;;;1.17;1.08;;;18.50;48.70;;;;;;6197123;23;20157;-87
2022/04/01 08:29:15;;;;;;;2.85;1.33;;;18.60;48.60;;;;;;6146215;23;20154;-84
2022/04/01 08:31:42;;;;;;;2.47;1.40;;;18.60;48.70;;;;;;6169832;23;20281;-86
2022/04/01 08:34:09;;;;;;;1.95;1.20;;;18.60;48.70;;;;;;6145469;23;20535;-85
2022/04/01 08:36:36;;;;;;;1.13;1.02;;;18.50;48.80;;;;;;6120522;23;20152;-86
2022/04/01 08:39:03;;;;;;;1.83;1.20;;;18.50;48.60;;;;;;6169655;23;20524;-85
2022/04/01 08:41:30;;;;;;;1.42;1.30;;;18.60;48.60;;;;;;6144694;23;20164;-85
2022/04/01 08:43:57;;;;;;;2.55;1.25;;;18.60;48.50;;;;;;6145134;23;20157;-86
2022/04/01 08:46:24;;;;;;;1.95;1.20;;;18.60;48.50;;;;;;6169903;23;20192;-84
2022/04/01 08:48:51;;;;;;;1.88;1.27;;;18.60;48.40;;;;;;6120842;23;20499;-84
2022/04/01 08:51:18;;;;;;;2.15;1.30;;;18.60;48.20;;;;;;6169492;23;20223;-86
2022/04/01 08:53:46;;;;;;;2.65;1.40;;;18.60;48.50;;;;;;6120732;23;20207;-84
2022/04/01 08:56:18;;;;;;;3.05;1.40;;;18.60;48.50;;;;;;6147906;23;20612;-84
2022/04/01 08:58:47;;;;;;;1.70;1.17;;;18.60;48.30;;;;;;6149056;23;20202;-85
2022/04/01 09:01:17;;;;;;;2.10;1.40;;;18.60;48.60;;;;;;6172055;23;20591;-83
2022/04/01 09:03:49;;;;;;;1.23;0.95;;;18.60;48.30;;;;;;6148972;23;20295;-85
2022/04/01 09:06:16;;;;;;;1.40;1.30;;;18.70;48.20;;;;;;6146367;23;20177;-85
2022/04/01 09:08:44;;;;;;;1.33;1.23;;;18.70;48.00;;;;;;6147865;23;20597;-83
2022/04/01 09:11:17;;;;;;;1.65;1.13;;;18.60;48.10;;;;;;6171418;23;20154;-85
2022/04/01 09:13:50;;;;;;;1.55;1.08;;;18.70;48.30;;;;;;6149412;23;20149;-84
2022/04/01 09:16:36;;;;;;;1.33;1.23;;;18.60;48.00;;;;;;6148267;23;20153;-85
2022/04/01 09:19:09;;;;;;;1.60;1.10;;;18.70;48.40;;;;;;6225776;23;20140;-81
2022/04/01 09:21:39;;;;;;;1.33;1.10;;;18.70;48.30;;;;;;6154625;23;20240;-84
2022/04/01 09:24:11;;;;;;;1.60;1.15;;;18.70;48.50;;;;;;6229288;23;20130;-87
2022/04/01 09:26:43;;;;;;;2.65;1.30;;;18.70;48.20;;;;;;6148850;23;20189;-87
2022/04/01 09:29:10;;;;;;;1.90;1.30;;;18.70;48.00;;;;;;6148045;23;20157;-84
2022/04/01 09:31:38;;;;;;;1.83;1.48;;;18.70;48.20;;;;;;6223503;23;20186;-83
2022/04/01 09:34:06;;;;;;;1.30;1.20;;;18.70;47.60;;;;;;6226580;23;20484;-86
2022/04/01 09:36:37;;;;;;;0.98;0.95;;;18.70;48.70;;;;;;6199286;23;20206;-83
2022/04/01 09:39:06;;;;;;;1.30;1.20;;;18.70;47.90;;;;;;6173651;23;20600;-85
2022/04/01 09:41:46;;;;;;;1.52;1.05;;;18.70;47.90;;;;;;6227512;23;20134;-85
2022/04/01 09:44:15;;;;;;;1.35;1.10;;;18.70;47.60;;;;;;6151584;23;20157;-81
2022/04/01 09:46:48;;;;;;;1.70;1.10;;;18.70;48.50;;;;;;6223627;23;20177;-83
2022/04/01 09:49:27;;;;;;;1.65;1.13;;;18.80;47.40;;;;;;6149116;23;20216;-83
2022/04/01 09:51:57;;;;;;;1.98;1.27;;;18.80;47.40;;;;;;6223603;23;20188;-82
2022/04/01 09:54:25;;;;;;;1.90;1.30;;;18.80;47.80;;;;;;6148442;23;20160;-83
2022/04/01 09:56:55;;;;;;;7.93;1.40;;;18.70;48.00;;;;;;6148515;23;20160;-90
2022/04/01 09:59:24;;;;;;;1.00;0.90;;;18.70;47.90;;;;;;6200611;23;20541;-85
2022/04/01 10:01:50;;;;;;;1.73;1.25;;;18.60;47.60;;;;;;6123507;23;20496;-85
2022/04/01 10:04:20;;;;;;;1.73;1.17;;;18.60;47.60;;;;;;6197927;23;20156;-84
2022/04/01 10:06:47;;;;;;;1.70;1.45;;;18.70;47.70;;;;;;6172412;23;20184;-84
2022/04/01 10:09:17;;;;;;;1.52;1.00;;;18.60;48.10;;;;;;6171624;23;20604;-87
2022/04/01 10:11:43;;;;;;;1.40;1.10;;;18.70;47.80;;;;;;6122426;23;20149;-88
2022/04/01 10:14:13;;;;;;;1.30;1.20;;;18.70;47.90;;;;;;6221196;23;20156;-85
2022/04/01 10:16:42;;;;;;;1.50;1.40;;;18.60;47.80;;;;;;6196281;23;20159;-84
2022/04/01 10:19:12;;;;;;;2.38;1.00;;;18.70;47.90;;;;;;6197061;23;20134;-82
2022/04/01 10:21:44;;;;;;;2.03;1.38;;;18.70;48.10;;;;;;6148102;23;20161;-85
2022/04/01 10:24:24;;;;;;;4.20;1.20;;;18.70;47.90;;;;;;6170934;23;20160;-84
2022/04/01 10:27:07;;;;;;;1.33;1.08;;;18.60;48.00;;;;;;6150045;23;20272;-87
2022/04/01 10:29:32;;;;;;;2.40;1.02;;;18.70;47.90;;;;;;6221723;23;20125;-85
2022/04/01 10:32:33;;;;;;;1.98;1.10;;;18.70;47.80;;;;;;6219493;23;20146;-86
2022/04/01 10:35:01;;;;;;;1.88;1.38;;;18.70;48.10;;;;;;6246645;23;20149;-86
2022/04/01 10:37:32;;;;;;;2.47;1.15;;;18.70;47.70;;;;;;6145343;23;20479;-86
2022/04/01 10:40:16;;;;;;;1.80;1.10;;;18.70;47.80;;;;;;6120787;23;20219;-84
2022/04/01 10:42:43;;;;;;;2.85;1.30;;;18.70;47.60;;;;;;6149723;23;20149;-84
2022/04/01 10:45:25;;;;;;;1.63;1.08;;;18.70;47.90;;;;;;6145132;23;20652;-84
2022/04/01 10:53:38;;;;;;;2.20;1.48;;;18.70;48.80;;;;;;6225237;23;20141;-85
2022/04/01 10:56:27;;;;;;;6.40;1.50;;;18.60;48.70;;;;;;6221606;23;20161;-83
2022/04/01 10:59:19;;;;;;;4.30;1.30;;;18.70;49.10;;;;;;6224492;23;20157;-84
2022/04/01 11:02:06;;;;;;;1.92;1.33;;;18.70;48.70;;;;;;6219653;23;20399;-85
2022/04/01 11:04:38;;;;;;;3.97;1.30;;;18.60;48.70;;;;;;6198772;23;20165;-86
2022/04/01 11:07:29;;;;;;;2.83;1.20;;;18.60;48.90;;;;;;6144995;23;20240;-83
2022/04/01 11:10:06;;;;;;;2.80;1.13;;;18.60;48.50;;;;;;6103843;23;20160;-89
2022/04/01 11:12:42;;;;;;;3.20;1.48;;;18.70;48.70;;;;;;6145282;23;20636;-84
2022/04/01 11:15:15;;;;;;;2.97;1.40;;;18.70;48.60;;;;;;6149125;23;20232;-86
2022/04/01 11:18:01;;;;;;;2.03;1.25;;;18.60;48.80;;;;;;6171796;23;20191;-83
2022/04/01 11:20:32;;;;;;;1.83;1.02;;;18.70;49.40;;;;;;6227072;23;20145;-84
2022/04/01 11:23:05;;;;;;;2.92;1.40;;;18.60;49.00;;;;;;6149232;23;20167;-87
2022/04/01 11:25:54;;;;;;;3.78;1.17;;;18.60;49.00;;;;;;6149744;23;20156;-82
2022/04/01 11:28:23;;;;;;;2.90;1.17;;;18.60;49.10;;;;;;6209536;23;20517;-81
2022/04/01 11:31:08;;;;;;;2.88;1.50;;;18.50;49.80;;;;;;6233072;23;20257;-81
2022/04/01 11:33:39;;;;;;;2.72;1.40;;;18.50;50.50;;;;;;6213123;23;20130;-81
2022/04/01 11:36:07;;;;;;;1.73;1.23;;;18.50;51.00;;;;;;6153913;23;20180;-83
2022/04/01 11:38:36;;;;;;;1.50;1.20;;;18.50;50.80;;;;;;6150979;23;20157;-85
2022/04/01 11:41:04;;;;;;;2.30;1.23;;;18.50;50.20;;;;;;6154816;23;20164;-82
2022/04/01 11:43:33;;;;;;;2.65;1.45;;;18.40;50.50;;;;;;6178561;23;20157;-84
2022/04/01 11:46:04;;;;;;;4.15;1.25;;;18.40;51.40;;;;;;6173197;23;20184;-85
2022/04/01 11:48:36;;;;;;;2.30;1.20;;;18.40;50.70;;;;;;6152533;23;20588;-86
2022/04/01 11:51:08;;;;;;;1.52;1.02;;;18.40;50.80;;;;;;6148267;23;20177;-86
2022/04/01 11:53:37;;;;;;;1.67;1.33;;;18.50;50.50;;;;;;6151745;23;20465;-87
2022/04/01 11:56:08;;;;;;;1.90;1.25;;;18.50;50.70;;;;;;6198564;23;20146;-83
2022/04/01 11:58:48;;;;;;;2.63;1.33;;;18.50;51.20;;;;;;6152194;23;20161;-83
2022/04/01 12:01:18;;;;;;;2.47;1.40;;;18.50;51.10;;;;;;6204051;23;20153;-82
2022/04/01 12:03:45;;;;;;;3.40;1.33;;;18.50;51.00;;;;;;6150670;23;20227;-87
2022/04/01 12:08:53;;;;;;;3.05;1.50;;;18.60;50.80;;;;;;6187607;23;20149;-82
2022/04/01 12:11:24;;;;;;;2.10;1.20;;;18.60;50.70;;;;;;6157423;23;20241;-82
2022/04/01 12:13:54;;;;;;;2.05;1.20;;;18.60;51.20;;;;;;6156956;23;20271;-81
2022/04/01 12:16:26;;;;;;;1.75;1.08;;;18.50;50.80;;;;;;6156208;23;20156;-81
2022/04/01 12:18:53;;;;;;;1.42;1.05;;;18.60;50.50;;;;;;6181406;23;20153;-81
2022/04/01 12:21:24;;;;;;;1.10;0.98;;;18.60;50.50;;;;;;6157657;23;20157;-82
2022/04/01 12:23:54;;;;;;;1.63;1.27;;;18.60;50.80;;;;;;6133866;23;20585;-85
2022/04/01 12:26:24;;;;;;;2.00;1.10;;;18.60;50.40;;;;;;6179995;23;20184;-87
2022/04/01 12:28:59;;;;;;;2.78;1.40;;;18.60;50.10;;;;;;6183410;23;20153;-82
2022/04/01 12:31:31;;;;;;;2.38;1.35;;;18.70;50.20;;;;;;6154020;23;20588;-84
2022/04/01 12:34:03;;;;;;;1.92;1.30;;;18.60;50.50;;;;;;6128961;23;20180;-85
2022/04/01 12:36:36;;;;;;;1.90;1.50;;;18.60;50.50;;;;;;6175321;23;20484;-82
2022/04/01 12:39:08;;;;;;;4.18;1.30;;;18.60;50.50;;;;;;6150142;23;20488;-85
2022/04/01 12:41:47;;;;;;;3.30;1.20;;;18.70;49.80;;;;;;6224636;23;20137;-89
2022/04/01 12:44:14;;;;;;;3.00;1.30;;;18.70;49.60;;;;;;6229865;23;20138;-83
2022/04/01 12:46:49;;;;;;;1.20;1.10;;;18.70;49.50;;;;;;6228807;23;20176;-87
2022/04/01 12:49:18;;;;;;;1.83;1.17;;;18.70;49.90;;;;;;6155949;23;20159;-86
2022/04/01 12:51:48;;;;;;;2.10;1.20;;;18.80;50.60;;;;;;6225494;23;20156;-85
2022/04/01 12:54:37;;;;;;;3.22;1.27;;;18.70;50.70;;;;;;6250782;23;20569;-83
2022/04/01 12:57:06;;;;;;;6.38;1.50;;;18.70;50.50;;;;;;6221715;23;20133;-87
2022/04/01 12:59:35;;;;;;;2.53;1.38;;;18.70;50.50;;;;;;6221538;23;20138;-83
2022/04/01 13:02:04;;;;;;;4.28;1.50;;;18.70;50.40;;;;;;6196178;23;20216;-82
2022/04/01 13:04:47;;;;;;;1.92;1.20;;;18.70;50.90;;;;;;6170845;23;20202;-84
2022/04/01 13:07:19;;;;;;;1.77;1.40;;;18.70;50.50;;;;;;6199037;23;20172;-82
2022/04/01 13:09:52;;;;;;;2.72;1.20;;;18.70;50.80;;;;;;6151316;23;20228;-84
2022/04/01 13:12:21;;;;;;;2.38;1.40;;;18.70;50.10;;;;;;6181544;23;20157;-82
2022/04/01 13:14:56;;;;;;;1.92;1.35;;;18.70;50.20;;;;;;6160761;23;20150;-83
2022/04/01 13:17:24;;;;;;;2.28;1.40;;;18.80;50.30;;;;;;6184863;23;20176;-81
2022/04/01 13:19:57;;;;;;;2.67;1.15;;;18.70;50.50;;;;;;6207720;23;20149;-82